Time;durP1;ratioP1;P1;durP2;ratioP2;P2;SDS_P1;SDS_P2;PMS_P1;PMS_P2;Temp;Humidity;BMP_temperature;BMP_pressure;BME280_temperature;BME280_humidity;BME280_pressure;Samples;Min_cycle;Max_cycle;Signal;HPM_P1;HPM_P2
2021/12/24 00:02:12;;;;;;;6.70;3.87;;;10.00;99.90;;;;;;5032664;28;20184;-81
2021/12/24 00:04:37;;;;;;;8.93;3.77;;;10.00;99.90;;;;;;5014824;28;20440;-82
2021/12/24 00:07:03;;;;;;;4.60;3.90;;;9.90;99.90;;;;;;5014123;28;20217;-82
2021/12/24 00:09:32;;;;;;;6.33;3.70;;;9.90;99.90;;;;;;5037318;28;20213;-83
2021/12/24 00:12:01;;;;;;;5.70;3.10;;;9.90;99.90;;;;;;5036677;28;20432;-84
2021/12/24 00:14:29;;;;;;;6.28;3.47;;;9.90;99.90;;;;;;5024455;28;20197;-84
2021/12/24 00:16:58;;;;;;;4.05;2.90;;;9.90;99.90;;;;;;5034847;28;20174;-84
2021/12/24 00:35:59;;;;;;;6.03;3.05;;;9.90;99.90;;;;;;5034691;28;20216;-82
2021/12/24 00:38:25;;;;;;;5.30;3.20;;;9.90;99.90;;;;;;5010531;28;20627;-83
2021/12/24 00:40:50;;;;;;;4.47;3.07;;;9.90;99.90;;;;;;5036273;28;20288;-83
2021/12/24 00:43:16;;;;;;;4.37;2.60;;;9.90;99.90;;;;;;5023258;28;20240;-82
2021/12/24 00:45:44;;;;;;;5.07;2.75;;;9.90;99.90;;;;;;5037315;28;20224;-83
2021/12/24 00:48:17;;;;;;;4.13;2.70;;;9.90;99.90;;;;;;5035704;28;20197;-83
2021/12/24 00:56:03;;;;;;;4.30;2.83;;;10.10;99.90;;;;;;5033645;28;20170;-83
2021/12/24 00:58:30;;;;;;;5.15;3.70;;;10.10;99.90;;;;;;5008317;28;20279;-83
2021/12/24 01:00:55;;;;;;;6.97;3.97;;;10.10;99.90;;;;;;5021889;28;20230;-83
2021/12/24 01:03:21;;;;;;;5.43;2.93;;;10.10;99.90;;;;;;5038963;28;20205;-83
2021/12/24 01:05:47;;;;;;;5.03;3.20;;;10.10;99.90;;;;;;5042060;28;20215;-84
2021/12/24 01:08:14;;;;;;;4.40;2.90;;;10.10;99.90;;;;;;5041197;28;20267;-84
2021/12/24 01:10:58;;;;;;;7.60;3.15;;;10.00;99.90;;;;;;5030857;28;20216;-83
2021/12/24 01:13:25;;;;;;;5.13;3.55;;;9.90;99.90;;;;;;5038054;28;20240;-83
2021/12/24 01:16:42;;;;;;;12.05;3.22;;;9.90;99.90;;;;;;5022196;28;20235;-83
2021/12/24 01:24:12;;;;;;;3.33;2.60;;;10.00;99.90;;;;;;5037559;28;20198;-81
2021/12/24 01:26:47;;;;;;;5.45;2.55;;;9.90;99.90;;;;;;5010017;28;20185;-82
2021/12/24 01:40:06;;;;;;;4.55;3.05;;;9.80;99.90;;;;;;5032446;28;20248;-84
2021/12/24 01:45:32;;;;;;;4.80;3.55;;;9.80;99.90;;;;;;5018721;28;20622;-82
2021/12/24 01:48:05;;;;;;;5.25;2.85;;;9.80;99.90;;;;;;5035918;28;20181;-82
2021/12/24 01:50:33;;;;;;;3.92;2.67;;;9.80;99.90;;;;;;5015146;28;20205;-82
2021/12/24 01:53:01;;;;;;;3.83;3.05;;;9.90;99.90;;;;;;5019086;28;20216;-82
2021/12/24 01:55:27;;;;;;;5.95;2.70;;;10.00;99.90;;;;;;5014701;28;20178;-82
2021/12/24 01:57:53;;;;;;;5.70;2.90;;;9.90;99.90;;;;;;5020033;28;20182;-82
2021/12/24 02:00:27;;;;;;;3.00;2.65;;;10.00;99.90;;;;;;5036937;28;20224;-82
2021/12/24 02:02:53;;;;;;;5.65;2.95;;;10.00;99.90;;;;;;5011068;28;20201;-84
2021/12/24 02:05:20;;;;;;;4.50;2.95;;;9.90;99.90;;;;;;5035285;28;20239;-84
2021/12/24 02:07:46;;;;;;;6.80;2.70;;;9.90;99.90;;;;;;5008592;28;20197;-83
2021/12/24 02:10:14;;;;;;;3.40;3.00;;;9.90;99.90;;;;;;5017208;28;20213;-83
2021/12/24 02:12:40;;;;;;;3.33;2.50;;;9.90;99.90;;;;;;5021027;28;20231;-83
2021/12/24 02:15:13;;;;;;;6.18;3.00;;;9.90;99.90;;;;;;5035458;28;20696;-83
2021/12/24 02:28:36;;;;;;;3.47;2.40;;;10.20;99.90;;;;;;5037929;28;20217;-83
2021/12/24 02:31:03;;;;;;;7.50;3.10;;;10.20;99.90;;;;;;5021298;28;20205;-83
2021/12/24 02:33:29;;;;;;;4.47;3.10;;;10.20;99.90;;;;;;5022644;28;20217;-83
2021/12/24 02:35:54;;;;;;;3.57;2.70;;;10.20;99.90;;;;;;5018433;28;20659;-83
2021/12/24 02:38:20;;;;;;;5.50;3.60;;;10.20;99.90;;;;;;5023643;28;20192;-83
2021/12/24 02:40:46;;;;;;;4.33;2.87;;;10.20;99.90;;;;;;5036106;28;20201;-83
2021/12/24 02:43:13;;;;;;;3.33;2.20;;;10.20;99.90;;;;;;5035506;28;20573;-83
2021/12/24 02:45:41;;;;;;;4.35;2.85;;;10.20;99.90;;;;;;5032774;28;20448;-83
2021/12/24 02:48:14;;;;;;;4.93;2.63;;;10.20;99.90;;;;;;5033714;28;20263;-83
2021/12/24 02:56:11;;;;;;;3.05;2.75;;;10.10;99.90;;;;;;5030155;28;20201;-83
2021/12/24 02:58:42;;;;;;;6.80;3.15;;;10.10;99.90;;;;;;5017658;28;20244;-83
2021/12/24 03:01:09;;;;;;;3.97;2.97;;;10.10;99.90;;;;;;5024353;28;20730;-83
2021/12/24 03:03:35;;;;;;;4.65;2.90;;;10.20;99.90;;;;;;5039483;28;20205;-83
2021/12/24 03:06:01;;;;;;;5.00;2.90;;;10.20;99.90;;;;;;5036547;28;20241;-83
2021/12/24 03:08:26;;;;;;;3.60;2.60;;;10.20;99.90;;;;;;5039245;28;20193;-83
2021/12/24 03:10:54;;;;;;;4.30;2.53;;;10.10;99.90;;;;;;5016930;28;20209;-82
2021/12/24 03:13:21;;;;;;;6.75;4.47;;;10.20;99.90;;;;;;5017377;28;20177;-82
2021/12/24 03:15:50;;;;;;;6.55;3.28;;;10.20;99.90;;;;;;5014001;28;20189;-81
2021/12/24 03:18:23;;;;;;;8.88;3.55;;;10.20;99.90;;;;;;5034086;28;20784;-83
2021/12/24 03:20:48;;;;;;;5.50;3.50;;;10.20;99.90;;;;;;5029817;28;20213;-83
2021/12/24 03:23:34;;;;;;;6.60;3.43;;;10.30;99.90;;;;;;5019930;28;20261;-84
2021/12/24 03:26:00;;;;;;;5.25;3.45;;;10.30;99.90;;;;;;5019764;28;20173;-83
2021/12/24 03:28:26;;;;;;;3.57;2.67;;;10.20;99.90;;;;;;5036965;28;20224;-84
2021/12/24 03:30:51;;;;;;;3.87;3.33;;;10.10;99.90;;;;;;5018691;28;20313;-83
2021/12/24 03:33:17;;;;;;;3.40;3.10;;;;;;;;;;5037211;28;20430;-84
2021/12/24 03:35:43;;;;;;;3.00;2.47;;;10.10;99.90;;;;;;5021356;28;20174;-83
2021/12/24 03:38:08;;;;;;;6.27;2.87;;;10.20;99.90;;;;;;5025598;28;20435;-83
2021/12/24 03:40:34;;;;;;;4.47;3.43;;;10.20;99.90;;;;;;5023071;28;20209;-83
2021/12/24 03:43:00;;;;;;;3.93;3.07;;;10.20;99.90;;;;;;5035547;28;20185;-84
2021/12/24 03:45:36;;;;;;;8.43;4.57;;;10.20;99.90;;;;;;5020695;28;20196;-82
2021/12/24 03:48:13;;;;;;;5.78;3.35;;;10.20;99.90;;;;;;5027882;28;20276;-82
2021/12/24 03:50:55;;;;;;;3.33;2.92;;;10.20;99.90;;;;;;5009539;28;20294;-81
2021/12/24 03:56:04;;;;;;;5.72;3.60;;;10.10;99.90;;;;;;5035739;28;20610;-81
2021/12/24 03:58:30;;;;;;;6.10;3.80;;;10.10;99.90;;;;;;5021287;28;20177;-81
2021/12/24 04:00:56;;;;;;;5.80;3.50;;;10.10;99.90;;;;;;5021191;28;20569;-82
2021/12/24 04:03:22;;;;;;;5.73;3.30;;;10.00;99.90;;;;;;5037358;28;20201;-82
2021/12/24 04:05:47;;;;;;;5.43;3.00;;;;;;;;;;5020691;28;20193;-81
2021/12/24 04:08:15;;;;;;;6.33;3.20;;;10.00;99.90;;;;;;5037404;28;20190;-82
2021/12/24 04:10:40;;;;;;;4.68;3.28;;;9.90;99.90;;;;;;5034942;28;20475;-81
2021/12/24 04:13:10;;;;;;;4.87;3.30;;;9.90;99.90;;;;;;5037777;28;20191;-81
2021/12/24 04:15:37;;;;;;;3.95;3.17;;;9.90;99.90;;;;;;5026098;28;20190;-82
2021/12/24 04:18:11;;;;;;;5.72;3.53;;;9.80;99.90;;;;;;5017730;28;20184;-82
2021/12/24 04:26:06;;;;;;;6.88;3.50;;;9.80;99.90;;;;;;5035465;28;20188;-81
2021/12/24 04:28:31;;;;;;;6.63;3.70;;;9.40;99.90;;;;;;5018705;28;20477;-81
2021/12/24 04:30:57;;;;;;;6.47;4.10;;;9.80;99.90;;;;;;5021837;28;20225;-82
2021/12/24 04:33:29;;;;;;;3.93;3.30;;;9.80;99.90;;;;;;5020359;28;20184;-82
2021/12/24 04:36:08;;;;;;;6.95;4.00;;;9.70;99.90;;;;;;5021430;28;20658;-82
2021/12/24 04:52:50;;;;;;;4.78;3.17;;;9.50;99.90;;;;;;5032467;28;20177;-83
2021/12/24 05:01:32;;;;;;;5.70;3.47;;;9.60;99.90;;;;;;5032852;28;20263;-83
2021/12/24 05:03:33;;;;;;;6.05;3.55;;;9.60;99.90;;;;;;5021187;28;20224;-82
2021/12/24 05:08:59;;;;;;;6.35;3.50;;;9.50;99.90;;;;;;5034746;28;20188;-82
2021/12/24 05:11:25;;;;;;;9.93;4.38;;;9.60;99.90;;;;;;5035145;28;20748;-82
2021/12/24 05:13:54;;;;;;;6.90;4.10;;;9.50;99.90;;;;;;5018591;28;20213;-83
2021/12/24 05:16:26;;;;;;;5.90;3.70;;;9.60;99.90;;;;;;5020744;28;20323;-82
2021/12/24 05:21:32;;;;;;;7.60;4.38;;;9.60;99.90;;;;;;5021148;28;20276;-82
2021/12/24 05:21:47;;;;;;;5.22;3.50;;;9.60;99.90;;;;;;5030625;28;20190;-81
2021/12/24 05:24:16;;;;;;;5.60;3.30;;;9.60;99.90;;;;;;5031866;28;20203;-82
2021/12/24 05:26:45;;;;;;;5.20;3.30;;;9.60;99.90;;;;;;5033847;28;20190;-82
2021/12/24 05:29:13;;;;;;;6.43;4.00;;;9.70;99.90;;;;;;5034665;28;20182;-81
2021/12/24 05:31:38;;;;;;;5.70;2.75;;;9.70;99.90;;;;;;5033867;28;20219;-83
2021/12/24 05:34:04;;;;;;;7.27;3.63;;;9.60;99.90;;;;;;5037660;28;20282;-82
2021/12/24 05:36:33;;;;;;;6.63;2.50;;;9.60;99.90;;;;;;5035401;28;21211;-82
2021/12/24 05:38:59;;;;;;;5.25;3.05;;;9.60;99.90;;;;;;5036412;28;20185;-82
2021/12/24 05:41:26;;;;;;;4.15;3.28;;;9.60;99.90;;;;;;5034519;28;20205;-82
2021/12/24 05:43:52;;;;;;;5.82;3.33;;;9.50;99.90;;;;;;5009888;28;20220;-82
2021/12/24 05:46:17;;;;;;;3.88;3.28;;;9.50;99.90;;;;;;5032648;28;20186;-85
2021/12/24 05:48:44;;;;;;;4.83;3.53;;;;;;;;;;5023578;28;20188;-83
2021/12/24 05:51:10;;;;;;;6.50;3.80;;;9.50;99.90;;;;;;5036636;28;20471;-83
2021/12/24 05:53:36;;;;;;;4.47;3.10;;;9.50;99.90;;;;;;5037154;28;20182;-83
2021/12/24 05:56:02;;;;;;;5.00;3.15;;;9.50;99.90;;;;;;5016696;28;20178;-84
2021/12/24 05:58:28;;;;;;;6.35;3.25;;;9.50;99.90;;;;;;5008040;28;20207;-83
2021/12/24 06:00:54;;;;;;;5.87;3.50;;;9.60;99.90;;;;;;5034559;28;20205;-83
2021/12/24 06:03:19;;;;;;;3.30;2.67;;;9.60;99.90;;;;;;5018349;28;20194;-84
2021/12/24 06:05:46;;;;;;;3.97;3.03;;;9.60;99.90;;;;;;5029168;28;20246;-81
2021/12/24 06:08:11;;;;;;;5.53;3.60;;;9.60;99.90;;;;;;5032625;28;20185;-82
2021/12/24 06:10:37;;;;;;;11.43;3.93;;;9.70;99.90;;;;;;5011679;28;20813;-82
2021/12/24 06:13:04;;;;;;;4.37;3.37;;;9.70;99.90;;;;;;5030901;28;20531;-81
2021/12/24 06:15:41;;;;;;;7.28;3.85;;;9.80;99.90;;;;;;5031017;28;20190;-82
2021/12/24 06:18:12;;;;;;;4.90;3.40;;;9.70;99.90;;;;;;5027903;28;20280;-81
2021/12/24 06:20:41;;;;;;;4.93;3.45;;;9.60;99.90;;;;;;5031740;28;20228;-81
2021/12/24 06:23:09;;;;;;;6.15;3.70;;;9.60;99.90;;;;;;5027907;28;20182;-81
2021/12/24 06:25:37;;;;;;;5.57;3.95;;;9.50;99.90;;;;;;5032050;28;20193;-84
2021/12/24 06:28:03;;;;;;;8.20;4.22;;;9.50;99.90;;;;;;5015975;28;23723;-82
2021/12/24 06:30:29;;;;;;;5.43;3.80;;;9.60;99.90;;;;;;5031761;28;20217;-81
2021/12/24 06:32:59;;;;;;;8.00;3.90;;;9.50;99.90;;;;;;5032225;28;20178;-81
2021/12/24 06:35:26;;;;;;;6.10;3.47;;;9.60;99.90;;;;;;5032001;28;20269;-80
2021/12/24 06:37:53;;;;;;;10.50;4.60;;;9.60;99.90;;;;;;5032157;28;20560;-80
2021/12/24 06:40:19;;;;;;;10.00;4.93;;;9.50;99.90;;;;;;5031058;28;20635;-81
2021/12/24 06:42:44;;;;;;;6.40;4.13;;;9.40;99.90;;;;;;5032208;28;20259;-80
2021/12/24 06:45:10;;;;;;;7.03;4.10;;;9.40;99.90;;;;;;5030142;28;20178;-80
2021/12/24 06:47:36;;;;;;;7.13;5.90;;;9.50;99.90;;;;;;5032328;28;20213;-81
2021/12/24 06:50:03;;;;;;;9.90;4.83;;;9.50;99.90;;;;;;5014632;28;20463;-80
2021/12/24 06:52:28;;;;;;;7.50;4.88;;;9.50;99.90;;;;;;5015721;28;20482;-81
2021/12/24 06:54:54;;;;;;;9.20;5.20;;;9.50;99.90;;;;;;5031634;28;20186;-80
2021/12/24 06:57:21;;;;;;;12.32;5.15;;;9.60;99.90;;;;;;5027107;28;20800;-80
2021/12/24 06:59:47;;;;;;;12.43;5.68;;;9.60;99.90;;;;;;5027245;28;20198;-81
2021/12/24 07:02:13;;;;;;;7.53;4.03;;;9.60;99.90;;;;;;5030284;28;20188;-81
2021/12/24 07:04:38;;;;;;;7.57;4.70;;;9.60;99.90;;;;;;5013042;28;20444;-80
2021/12/24 07:07:04;;;;;;;9.87;4.70;;;9.60;99.90;;;;;;5028764;28;20185;-81
2021/12/24 07:09:29;;;;;;;12.50;5.67;;;9.60;99.90;;;;;;5035349;28;20194;-81
2021/12/24 07:11:55;;;;;;;5.77;4.17;;;9.60;99.90;;;;;;5028434;28;20206;-80
2021/12/24 07:14:23;;;;;;;6.37;4.00;;;9.60;99.90;;;;;;5029133;28;20673;-81
2021/12/24 07:16:48;;;;;;;9.40;4.65;;;9.60;99.90;;;;;;5029441;28;20174;-80
2021/12/24 07:19:14;;;;;;;9.77;4.33;;;9.60;99.90;;;;;;5023165;28;20204;-80
2021/12/24 07:21:41;;;;;;;8.07;4.83;;;9.60;99.90;;;;;;5010597;28;20185;-81
2021/12/24 07:24:07;;;;;;;6.53;4.82;;;9.70;99.90;;;;;;5026873;28;20177;-80
2021/12/24 07:26:33;;;;;;;8.43;6.05;;;9.60;99.90;;;;;;5030308;28;20213;-80
2021/12/24 07:28:59;;;;;;;8.40;4.23;;;9.70;99.90;;;;;;5028121;28;20226;-81
2021/12/24 07:31:24;;;;;;;7.80;4.03;;;9.70;99.90;;;;;;5042725;23;20264;-81
2021/12/24 07:33:50;;;;;;;7.70;5.30;;;9.70;99.90;;;;;;5053560;28;20181;-78
2021/12/24 07:36:15;;;;;;;6.23;5.00;;;9.70;99.90;;;;;;5037267;28;20195;-79
2021/12/24 07:38:41;;;;;;;9.23;6.57;;;9.70;99.90;;;;;;5033941;28;20200;-77
2021/12/24 07:41:06;;;;;;;9.10;5.27;;;9.70;99.90;;;;;;5039670;28;20554;-80
2021/12/24 07:43:32;;;;;;;6.43;5.23;;;9.70;99.90;;;;;;5029853;28;20181;-81
2021/12/24 07:45:59;;;;;;;7.95;4.32;;;9.70;99.90;;;;;;5035415;28;20188;-81
2021/12/24 07:48:29;;;;;;;5.05;3.70;;;9.70;99.90;;;;;;5017284;28;20271;-81
2021/12/24 07:53:23;;;;;;;8.90;4.70;;;9.70;99.90;;;;;;5028580;28;20197;-79
2021/12/24 07:55:48;;;;;;;9.30;4.93;;;9.70;99.90;;;;;;5028315;28;20181;-81
2021/12/24 07:58:16;;;;;;;6.13;4.07;;;9.70;99.90;;;;;;5014071;28;20866;-78
2021/12/24 08:00:42;;;;;;;8.23;4.07;;;9.70;99.90;;;;;;5029938;28;20383;-79
2021/12/24 08:03:08;;;;;;;4.97;4.10;;;9.70;99.90;;;;;;5026762;28;20249;-79
2021/12/24 08:05:39;;;;;;;10.67;4.30;;;9.60;99.90;;;;;;5023681;28;20759;-79
2021/12/24 08:08:05;;;;;;;7.22;4.75;;;9.70;99.90;;;;;;5021030;28;20468;-79
2021/12/24 08:10:31;;;;;;;7.90;4.85;;;9.60;99.90;;;;;;5017667;28;20213;-78
2021/12/24 08:12:57;;;;;;;11.40;4.57;;;9.60;99.90;;;;;;5002184;28;20197;-78
2021/12/24 08:15:22;;;;;;;9.57;4.80;;;9.60;99.90;;;;;;5021366;28;20535;-78
2021/12/24 08:17:48;;;;;;;9.40;5.97;;;9.60;99.90;;;;;;5024316;28;20181;-79
2021/12/24 08:20:15;;;;;;;7.93;4.03;;;9.60;99.90;;;;;;5020833;28;20209;-78
2021/12/24 08:22:41;;;;;;;9.00;6.25;;;9.60;99.90;;;;;;5025271;28;20596;-79
2021/12/24 08:25:09;;;;;;;8.83;5.13;;;9.60;99.90;;;;;;5021518;28;20251;-80
2021/12/24 08:27:35;;;;;;;11.13;6.03;;;9.60;99.90;;;;;;5025195;28;20178;-81
2021/12/24 08:30:03;;;;;;;7.20;5.30;;;9.60;99.90;;;;;;5030907;28;20220;-81
2021/12/24 08:32:29;;;;;;;9.20;5.72;;;9.60;99.90;;;;;;5028343;28;20186;-85
2021/12/24 08:34:55;;;;;;;10.33;4.93;;;9.50;99.90;;;;;;5011958;28;20240;-84
2021/12/24 08:37:23;;;;;;;8.25;4.30;;;9.50;99.90;;;;;;5017888;28;20791;-84
2021/12/24 08:39:48;;;;;;;6.82;4.18;;;9.50;99.90;;;;;;5022465;28;20628;-83
2021/12/24 08:42:17;;;;;;;8.70;5.20;;;9.50;99.90;;;;;;5023797;28;20194;-83
2021/12/24 08:44:42;;;;;;;13.50;6.18;;;9.50;99.90;;;;;;5012319;28;20184;-82
2021/12/24 08:47:08;;;;;;;6.33;4.70;;;9.40;99.90;;;;;;5024067;28;20177;-85
2021/12/24 08:49:34;;;;;;;6.47;5.20;;;;;;;;;;5027549;28;20346;-84
2021/12/24 08:51:59;;;;;;;7.50;4.60;;;9.50;99.90;;;;;;5009751;28;20208;-80
2021/12/24 08:54:25;;;;;;;6.40;4.30;;;9.50;99.90;;;;;;5013993;28;20436;-80
2021/12/24 08:56:55;;;;;;;6.75;4.80;;;9.50;99.90;;;;;;5033376;28;20319;-82
2021/12/24 08:59:23;;;;;;;7.15;4.97;;;9.50;99.90;;;;;;5026779;28;20872;-82
2021/12/24 09:01:48;;;;;;;6.93;4.35;;;9.50;99.90;;;;;;5013263;28;20201;-81
2021/12/24 09:04:14;;;;;;;12.43;5.03;;;9.50;99.90;;;;;;5031115;28;20196;-83
2021/12/24 09:06:40;;;;;;;5.63;4.33;;;9.50;99.90;;;;;;5011601;28;20451;-82
2021/12/24 09:09:07;;;;;;;8.50;4.63;;;9.50;99.90;;;;;;5016676;28;20194;-83
2021/12/24 09:11:38;;;;;;;6.70;4.50;;;9.40;99.90;;;;;;5013012;28;20540;-82
2021/12/24 09:14:04;;;;;;;11.00;4.15;;;;;;;;;;5011880;28;20183;-81
2021/12/24 09:16:32;;;;;;;5.83;3.67;;;9.40;99.90;;;;;;5035494;28;20188;-84
2021/12/24 09:19:03;;;;;;;11.48;4.70;;;9.40;99.90;;;;;;5031281;28;20811;-81
2021/12/24 09:21:29;;;;;;;7.28;5.55;;;;;;;;;;5019412;28;20221;-83
2021/12/24 09:23:57;;;;;;;7.72;4.90;;;9.40;99.90;;;;;;5019076;28;20196;-86
2021/12/24 09:26:28;;;;;;;9.98;4.25;;;9.40;99.90;;;;;;5014760;28;20287;-79
2021/12/24 09:28:54;;;;;;;5.30;3.45;;;9.20;99.90;;;;;;5014247;28;20190;-83
2021/12/24 09:31:19;;;;;;;10.77;4.85;;;9.20;99.90;;;;;;5035665;28;20218;-82
2021/12/24 09:33:46;;;;;;;13.03;5.33;;;;;;;;;;5029927;28;20197;-83
2021/12/24 09:36:11;;;;;;;5.95;4.60;;;9.10;99.90;;;;;;5016840;28;20598;-82
2021/12/24 09:38:37;;;;;;;6.53;4.50;;;9.00;99.90;;;;;;5031059;28;20182;-83
2021/12/24 09:41:03;;;;;;;11.90;5.23;;;9.00;99.90;;;;;;5014579;28;20217;-80
2021/12/24 09:43:28;;;;;;;9.13;4.43;;;9.00;99.90;;;;;;5030652;28;20192;-78
2021/12/24 09:45:54;;;;;;;7.30;5.40;;;8.90;99.90;;;;;;5011012;28;20725;-82
2021/12/24 09:48:20;;;;;;;7.90;4.77;;;8.80;99.90;;;;;;5034949;28;20803;-83
2021/12/24 09:50:46;;;;;;;7.47;5.10;;;;;;;;;;5032406;28;21036;-83
2021/12/24 09:53:13;;;;;;;8.27;4.85;;;8.80;99.90;;;;;;5011991;28;20201;-83
2021/12/24 09:55:38;;;;;;;11.10;5.20;;;8.90;99.90;;;;;;5030250;28;20188;-83
2021/12/24 09:58:04;;;;;;;6.90;4.87;;;8.90;99.90;;;;;;5014541;28;20312;-82
2021/12/24 10:00:30;;;;;;;9.45;5.10;;;8.80;99.90;;;;;;5008562;28;20205;-83
2021/12/24 10:02:58;;;;;;;5.38;4.03;;;8.80;99.90;;;;;;5020879;28;20193;-83
2021/12/24 10:05:37;;;;;;;8.57;5.03;;;8.70;99.90;;;;;;5027306;28;20174;-83
2021/12/24 10:08:10;;;;;;;16.88;6.22;;;8.70;99.90;;;;;;5025826;28;20624;-82
2021/12/24 10:10:40;;;;;;;7.05;5.72;;;8.70;99.90;;;;;;5025803;28;20198;-83
2021/12/24 10:13:43;;;;;;;8.55;5.50;;;8.70;99.90;;;;;;5010499;28;20181;-83
2021/12/24 10:16:13;;;;;;;10.80;5.43;;;8.70;99.90;;;;;;5033547;28;20166;-83
2021/12/24 10:18:48;;;;;;;8.90;4.68;;;8.80;99.90;;;;;;5029959;28;20174;-84
2021/12/24 10:21:22;;;;;;;7.55;4.78;;;8.80;99.90;;;;;;5030992;28;20719;-82
2021/12/24 10:23:50;;;;;;;10.02;5.53;;;8.70;99.90;;;;;;5026411;28;20243;-82
2021/12/24 10:26:35;;;;;;;11.27;5.30;;;8.70;99.90;;;;;;5023888;28;20193;-83
2021/12/24 10:29:11;;;;;;;7.90;4.93;;;8.80;99.90;;;;;;5034699;28;20182;-84
2021/12/24 10:31:50;;;;;;;14.93;5.38;;;8.80;99.90;;;;;;5032721;28;20219;-83
2021/12/24 10:34:33;;;;;;;7.32;5.28;;;8.70;99.90;;;;;;5031210;28;20181;-82
2021/12/24 10:37:08;;;;;;;8.23;5.18;;;8.70;99.90;;;;;;5027265;28;20269;-84
2021/12/24 10:39:50;;;;;;;8.85;5.15;;;8.70;99.90;;;;;;5031404;28;20185;-84
2021/12/24 10:42:35;;;;;;;8.60;5.32;;;8.70;99.90;;;;;;5022849;28;20299;-82
2021/12/24 10:45:06;;;;;;;9.07;5.85;;;8.70;99.90;;;;;;5013364;28;20182;-84
2021/12/24 10:47:37;;;;;;;7.97;5.50;;;8.70;99.90;;;;;;5030394;28;20189;-83
2021/12/24 10:50:14;;;;;;;10.25;5.50;;;8.70;99.90;;;;;;5019918;28;20201;-84
2021/12/24 10:53:14;;;;;;;9.20;6.13;;;8.70;99.90;;;;;;5010856;28;20451;-82
2021/12/24 10:55:38;;;;;;;8.38;4.75;;;8.70;99.90;;;;;;5026337;28;20196;-82
2021/12/24 10:58:11;;;;;;;10.88;4.82;;;8.70;99.90;;;;;;5004060;28;20185;-85
2021/12/24 11:00:42;;;;;;;8.07;5.05;;;8.70;99.90;;;;;;5024144;28;20213;-82
2021/12/24 11:03:21;;;;;;;6.05;4.63;;;8.80;99.90;;;;;;5012426;28;20242;-83
2021/12/24 11:05:51;;;;;;;4.45;3.75;;;8.70;99.90;;;;;;5021944;28;20213;-83
2021/12/24 11:08:19;;;;;;;6.00;3.58;;;8.70;99.90;;;;;;5029660;28;20627;-84
2021/12/24 11:10:51;;;;;;;5.28;3.72;;;8.80;99.90;;;;;;5013452;28;20658;-82
2021/12/24 11:13:20;;;;;;;7.55;4.68;;;8.80;99.90;;;;;;5005104;28;20185;-81
2021/12/24 11:15:48;;;;;;;6.70;4.50;;;8.80;99.90;;;;;;5018675;28;20186;-83
2021/12/24 11:18:16;;;;;;;7.30;3.90;;;8.80;99.90;;;;;;5017853;28;20181;-84
2021/12/24 11:20:43;;;;;;;6.85;4.00;;;8.80;99.90;;;;;;5023123;28;20218;-83
2021/12/24 11:23:12;;;;;;;8.40;4.45;;;8.80;99.90;;;;;;5008046;28;20204;-80
2021/12/24 11:25:47;;;;;;;4.45;4.03;;;8.80;99.90;;;;;;5027888;28;20559;-85
2021/12/24 11:28:14;;;;;;;5.50;3.67;;;8.80;99.90;;;;;;5007895;28;20177;-84
2021/12/24 11:30:43;;;;;;;4.78;3.67;;;8.70;99.90;;;;;;4994377;28;20225;-84
2021/12/24 11:33:14;;;;;;;7.78;4.50;;;8.70;99.90;;;;;;5025554;28;20272;-83
2021/12/24 11:35:40;;;;;;;7.53;4.72;;;8.70;99.90;;;;;;5031038;28;20974;-85
2021/12/24 11:38:06;;;;;;;5.17;3.63;;;8.70;99.90;;;;;;5030864;28;20272;-85
2021/12/24 11:40:32;;;;;;;6.32;3.90;;;8.70;99.90;;;;;;5029760;28;20464;-83
2021/12/24 11:43:05;;;;;;;4.70;3.70;;;8.80;99.90;;;;;;5031289;28;20186;-81
2021/12/24 11:45:33;;;;;;;4.90;3.40;;;8.90;99.90;;;;;;5010141;28;20189;-82
2021/12/24 11:47:59;;;;;;;4.93;2.83;;;9.00;99.90;;;;;;5013130;28;20642;-82
2021/12/24 11:50:27;;;;;;;3.97;2.83;;;8.90;99.90;;;;;;5016648;28;20213;-82
2021/12/24 11:52:57;;;;;;;5.18;3.00;;;9.20;99.90;;;;;;5009762;28;20276;-83
2021/12/24 11:55:26;;;;;;;5.88;4.40;;;9.20;99.90;;;;;;5032229;28;20174;-82
2021/12/24 11:57:59;;;;;;;4.93;3.05;;;9.30;99.90;;;;;;5005052;28;20182;-82
2021/12/24 12:00:38;;;;;;;4.28;3.10;;;9.40;99.90;;;;;;5026046;28;20197;-85
2021/12/24 12:03:04;;;;;;;3.00;2.70;;;9.40;99.90;;;;;;5030202;28;20188;-80
2021/12/24 12:05:36;;;;;;;3.05;2.42;;;9.50;99.90;;;;;;5029696;28;20182;-83
2021/12/24 12:08:21;;;;;;;2.85;2.35;;;9.40;99.90;;;;;;5011303;28;20186;-84
2021/12/24 12:11:18;;;;;;;2.33;2.13;;;9.40;99.90;;;;;;5027365;28;20213;-80
2021/12/24 12:13:46;;;;;;;8.30;2.30;;;9.20;99.90;;;;;;5007027;28;20217;-84
2021/12/24 12:16:20;;;;;;;2.75;2.22;;;9.10;99.90;;;;;;5022262;28;20178;-83
2021/12/24 12:19:03;;;;;;;4.00;2.10;;;8.90;99.90;;;;;;5018612;28;20186;-82
2021/12/24 12:21:39;;;;;;;1.98;1.73;;;8.90;99.90;;;;;;5009413;28;20197;-82
2021/12/24 12:26:44;;;;;;;4.40;2.75;;;8.80;99.90;;;;;;5033778;28;20264;-82
2021/12/24 12:29:30;;;;;;;3.17;2.17;;;8.80;99.90;;;;;;5033334;28;20306;-82
2021/12/24 12:32:02;;;;;;;2.60;2.03;;;8.90;99.90;;;;;;5018483;28;20205;-81
2021/12/24 12:34:43;;;;;;;4.95;2.00;;;8.90;99.90;;;;;;5015256;28;20197;-83
2021/12/24 12:37:35;;;;;;;4.63;2.65;;;9.00;99.90;;;;;;5027114;28;20205;-82
2021/12/24 12:40:12;;;;;;;3.30;2.28;;;9.10;99.90;;;;;;5022827;28;20224;-83
2021/12/24 12:42:55;;;;;;;3.70;2.25;;;9.20;99.90;;;;;;5012116;28;20197;-82
2021/12/24 12:45:38;;;;;;;2.95;1.80;;;9.10;99.90;;;;;;5026142;28;20169;-83
2021/12/24 12:48:09;;;;;;;2.05;1.90;;;9.20;99.90;;;;;;5031851;28;20184;-82
2021/12/24 12:50:37;;;;;;;2.75;1.95;;;9.10;99.90;;;;;;5013084;28;20868;-84
2021/12/24 12:53:30;;;;;;;2.63;2.20;;;9.10;99.90;;;;;;5033611;28;20189;-82
2021/12/24 12:56:19;;;;;;;4.45;1.88;;;9.20;99.90;;;;;;5030335;28;20336;-83
2021/12/24 12:59:06;;;;;;;3.20;1.85;;;9.20;99.90;;;;;;5024052;28;20177;-84
2021/12/24 13:01:47;;;;;;;2.65;1.95;;;9.20;99.90;;;;;;5034605;28;20208;-84
2021/12/24 13:04:14;;;;;;;3.40;1.80;;;9.20;99.90;;;;;;5018708;28;20177;-83
2021/12/24 13:06:41;;;;;;;2.35;1.98;;;9.00;99.90;;;;;;5037225;28;20278;-83
2021/12/24 13:09:10;;;;;;;4.57;3.00;;;8.90;99.90;;;;;;5035967;28;20177;-84
2021/12/24 13:11:38;;;;;;;4.03;2.88;;;8.90;99.90;;;;;;5039457;28;20205;-84
2021/12/24 13:14:04;;;;;;;4.68;2.30;;;9.00;99.90;;;;;;5018718;28;20260;-83
2021/12/24 13:16:43;;;;;;;3.78;1.95;;;9.00;99.90;;;;;;5015620;28;20177;-84
2021/12/24 13:25:05;;;;;;;3.05;2.28;;;9.10;99.90;;;;;;5033619;28;20259;-83
2021/12/24 13:27:39;;;;;;;2.80;2.10;;;9.00;99.90;;;;;;5011482;28;20185;-84
2021/12/24 13:30:11;;;;;;;1.85;1.65;;;9.00;99.90;;;;;;5036472;28;20213;-84
2021/12/24 13:32:43;;;;;;;1.60;1.30;;;9.00;99.90;;;;;;5039099;28;20732;-84
2021/12/24 13:35:10;;;;;;;2.40;2.10;;;8.90;99.90;;;;;;5036242;28;20185;-84
2021/12/24 13:37:36;;;;;;;2.63;2.00;;;8.90;99.90;;;;;;5013597;28;20335;-83
2021/12/24 13:40:07;;;;;;;2.07;1.57;;;8.90;99.90;;;;;;5019795;28;20255;-81
2021/12/24 13:42:55;;;;;;;2.97;2.25;;;8.90;99.90;;;;;;5016560;28;20439;-82
2021/12/24 13:45:23;;;;;;;4.32;2.53;;;8.90;99.90;;;;;;5014007;28;20181;-84
2021/12/24 13:48:03;;;;;;;2.47;1.60;;;8.80;99.90;;;;;;5032949;28;20192;-83
2021/12/24 13:56:20;;;;;;;2.22;1.67;;;8.90;99.90;;;;;;5035718;28;20602;-84
2021/12/24 13:58:57;;;;;;;2.83;1.90;;;8.90;99.90;;;;;;5012295;28;20235;-80
2021/12/24 14:01:28;;;;;;;2.38;1.75;;;8.90;99.90;;;;;;5033431;28;20697;-84
2021/12/24 14:03:55;;;;;;;3.17;2.28;;;8.90;99.90;;;;;;5030882;28;20178;-83
2021/12/24 14:06:38;;;;;;;3.63;1.77;;;8.90;99.90;;;;;;5012140;28;20186;-82
2021/12/24 14:09:12;;;;;;;2.38;2.03;;;8.80;99.90;;;;;;5045365;23;20608;-78
2021/12/24 14:11:39;;;;;;;4.68;2.10;;;8.80;99.90;;;;;;5026075;28;20209;-80
2021/12/24 14:14:11;;;;;;;3.00;2.70;;;8.80;99.90;;;;;;5031926;28;20187;-80
2021/12/24 14:19:27;;;;;;;4.22;2.15;;;8.80;99.90;;;;;;5028006;28;20193;-82
2021/12/24 14:21:53;;;;;;;3.15;1.92;;;8.80;99.90;;;;;;5028941;28;20182;-80
2021/12/24 14:24:33;;;;;;;3.03;2.30;;;8.90;99.90;;;;;;5030654;28;20229;-81
2021/12/24 14:27:07;;;;;;;4.40;3.30;;;8.80;99.90;;;;;;5013460;28;20205;-81
2021/12/24 14:29:44;;;;;;;2.70;2.35;;;8.80;99.90;;;;;;5014640;28;20232;-80
2021/12/24 14:32:26;;;;;;;2.67;1.63;;;8.80;99.90;;;;;;5029241;28;20236;-79
2021/12/24 14:34:55;;;;;;;3.50;3.20;;;8.80;99.90;;;;;;5010946;28;21493;-80
2021/12/24 14:37:33;;;;;;;2.25;1.83;;;8.80;99.90;;;;;;5009901;28;20177;-80
2021/12/24 14:40:07;;;;;;;11.57;5.38;;;8.80;99.90;;;;;;5027888;28;20178;-80
2021/12/24 14:42:36;;;;;;;7.28;4.68;;;8.80;99.90;;;;;;5029112;28;20314;-78
2021/12/24 14:45:22;;;;;;;2.70;1.98;;;8.80;99.90;;;;;;5028501;28;20270;-78
2021/12/24 14:48:04;;;;;;;2.22;2.03;;;8.80;99.90;;;;;;5024384;28;20205;-80
2021/12/24 14:50:57;;;;;;;8.93;5.60;;;8.80;99.90;;;;;;5027440;28;20286;-78
2021/12/24 14:53:30;;;;;;;73.97;28.88;;;8.80;99.90;;;;;;5000991;28;20196;-80
2021/12/24 14:56:10;;;;;;;2.92;2.63;;;8.70;99.90;;;;;;5013376;28;20704;-80
2021/12/24 14:58:37;;;;;;;3.50;2.58;;;8.80;99.90;;;;;;5019893;28;20208;-80
2021/12/24 15:01:10;;;;;;;4.75;3.42;;;10.10;99.90;;;;;;5039082;28;20185;-80